createdAt,value
2023-02-14T00:01:49.400Z,41.40
2023-02-14T00:04:16.732Z,37.20
2023-02-14T00:06:43.344Z,35.63
2023-02-14T00:09:16.912Z,37.30
2023-02-14T00:11:43.446Z,37.80
2023-02-14T00:14:28.786Z,35.50
2023-02-14T00:16:55.408Z,36.40
2023-02-14T00:19:21.966Z,38.07
2023-02-14T00:21:48.678Z,39.03
2023-02-14T00:24:15.950Z,38.37
2023-02-14T00:26:42.489Z,40.90
2023-02-14T00:29:09.830Z,40.93
2023-02-14T00:31:37.436Z,39.40
2023-02-14T00:34:04.294Z,41.87
2023-02-14T00:36:30.885Z,41.27
2023-02-14T00:38:57.488Z,41.50
2023-02-14T00:41:23.983Z,40.60
2023-02-14T00:43:51.054Z,43.27
2023-02-14T00:46:17.703Z,41.57
2023-02-14T00:48:44.242Z,42.07
2023-02-14T00:51:10.804Z,41.97
2023-02-14T00:53:37.370Z,41.67
2023-02-14T00:56:03.935Z,37.27
2023-02-14T00:58:30.554Z,40.13
2023-02-14T01:00:57.542Z,44.03
2023-02-14T01:03:24.308Z,44.50
2023-02-14T01:05:50.839Z,51.97
2023-02-14T01:08:17.327Z,54.17
2023-02-14T01:10:43.918Z,46.63
2023-02-14T01:13:10.798Z,45.43
2023-02-14T01:15:45.268Z,42.37
2023-02-14T01:18:11.851Z,39.67
2023-02-14T01:20:38.345Z,39.47
2023-02-14T01:23:04.829Z,40.33
2023-02-14T01:25:31.329Z,39.60
2023-02-14T01:27:57.822Z,37.70
2023-02-14T01:30:24.394Z,37.80
2023-02-14T01:32:50.967Z,34.73
2023-02-14T01:35:17.612Z,39.07
2023-02-14T01:37:44.116Z,40.97
2023-02-14T01:40:11.135Z,38.80
2023-02-14T01:42:37.696Z,34.27
2023-02-14T01:45:05.680Z,37.30
2023-02-14T01:47:33.391Z,38.03
2023-02-14T01:50:04.834Z,37.70
2023-02-14T01:52:35.200Z,36.67
2023-02-14T01:55:03.150Z,39.00
2023-02-14T01:57:32.056Z,44.97
2023-02-14T02:00:18.714Z,42.33
2023-02-14T02:02:45.199Z,38.80
2023-02-14T02:05:11.685Z,41.53
2023-02-14T02:07:38.190Z,37.43
2023-02-14T02:10:06.294Z,35.87
2023-02-14T02:12:35.551Z,32.77
2023-02-14T02:15:02.168Z,37.47
2023-02-14T02:17:28.683Z,37.20
2023-02-14T02:19:58.272Z,32.73
2023-02-14T02:22:24.775Z,33.83
2023-02-14T02:25:03.233Z,33.13
2023-02-14T02:27:41.975Z,30.47
2023-02-14T02:30:14.645Z,30.67
2023-02-14T02:32:50.398Z,31.57
2023-02-14T02:35:19.726Z,27.17
2023-02-14T02:38:01.778Z,27.50
2023-02-14T02:40:47.104Z,26.80
2023-02-14T02:43:32.328Z,25.57
2023-02-14T02:46:39.134Z,27.60
2023-02-14T02:49:11.662Z,26.13
2023-02-14T02:51:59.255Z,28.67
2023-02-14T02:54:38.853Z,27.50
2023-02-14T02:57:05.929Z,27.37
2023-02-14T02:59:33.365Z,30.97
2023-02-14T03:02:17.917Z,26.53
2023-02-14T03:04:54.792Z,27.63
2023-02-14T03:07:36.517Z,24.80
2023-02-14T03:10:15.091Z,25.23
2023-02-14T03:12:59.883Z,26.43
2023-02-14T03:15:35.648Z,27.13
2023-02-14T03:18:02.191Z,26.13
2023-02-14T03:20:31.680Z,23.97
2023-02-14T03:23:01.204Z,25.97
2023-02-14T03:25:27.737Z,27.17
2023-02-14T03:28:13.166Z,23.93
2023-02-14T03:30:42.884Z,24.83
2023-02-14T03:33:15.520Z,24.50
2023-02-14T03:35:41.997Z,23.23
2023-02-14T03:38:08.504Z,22.63
2023-02-14T03:40:42.557Z,21.37
2023-02-14T03:43:12.663Z,21.43
2023-02-14T03:45:41.077Z,21.90
2023-02-14T03:48:08.355Z,22.23
2023-02-14T03:50:35.000Z,18.17
2023-02-14T03:53:01.480Z,21.00
2023-02-14T03:55:30.658Z,21.67
2023-02-14T03:58:17.100Z,18.17
2023-02-14T04:00:43.768Z,22.00
2023-02-14T04:03:12.156Z,21.43
2023-02-14T04:05:42.257Z,21.00
2023-02-14T04:08:08.743Z,25.20
2023-02-14T04:10:35.306Z,21.60
2023-02-14T04:13:01.800Z,22.60
2023-02-14T04:15:28.282Z,23.50
2023-02-14T04:18:15.198Z,27.40
2023-02-14T04:20:41.729Z,28.47
2023-02-14T04:23:08.204Z,25.07
2023-02-14T04:25:34.768Z,25.03
2023-02-14T04:28:01.333Z,26.37
2023-02-14T04:30:27.929Z,27.53
2023-02-14T04:32:54.540Z,25.97
2023-02-14T04:35:21.006Z,25.67
2023-02-14T04:37:47.489Z,22.17
2023-02-14T04:40:17.331Z,24.23
2023-02-14T04:42:44.590Z,26.80
2023-02-14T04:45:11.093Z,25.17
2023-02-14T04:47:37.668Z,22.17
2023-02-14T04:50:04.497Z,25.93
2023-02-14T04:52:31.052Z,24.50
2023-02-14T04:54:57.641Z,23.83
2023-02-14T04:57:24.144Z,22.77
2023-02-14T04:59:50.668Z,20.50
2023-02-14T05:02:17.308Z,22.83
2023-02-14T05:04:43.831Z,24.67
2023-02-14T05:07:10.381Z,24.77
2023-02-14T05:09:36.912Z,26.00
2023-02-14T05:12:03.454Z,25.77
2023-02-14T05:14:29.997Z,29.13
2023-02-14T05:16:56.534Z,24.30
2023-02-14T05:19:23.148Z,32.60
2023-02-14T05:21:49.720Z,32.23
2023-02-14T05:24:16.516Z,34.57
2023-02-14T05:26:43.107Z,33.80
2023-02-14T05:29:09.742Z,37.80
2023-02-14T05:31:36.541Z,35.60
2023-02-14T05:34:03.250Z,38.23
2023-02-14T05:36:29.815Z,38.23
2023-02-14T05:38:56.292Z,37.90
2023-02-14T05:41:25.018Z,39.30
2023-02-14T05:43:51.481Z,38.43
2023-02-14T05:46:18.055Z,37.20
2023-02-14T05:48:45.894Z,43.03
2023-02-14T05:51:12.430Z,36.60
2023-02-14T05:53:39.157Z,35.07
2023-02-14T05:56:05.983Z,33.80
2023-02-14T05:58:33.079Z,35.57
2023-02-14T06:01:00.119Z,38.70
2023-02-14T06:03:27.148Z,33.17
2023-02-14T06:05:53.728Z,38.10
2023-02-14T06:08:20.350Z,37.87
2023-02-14T06:10:46.937Z,36.57
2023-02-14T06:13:13.544Z,40.50
2023-02-14T06:15:40.055Z,37.23
2023-02-14T06:18:06.740Z,37.23
2023-02-14T06:20:33.493Z,34.27
2023-02-14T06:23:00.010Z,36.57
2023-02-14T06:25:26.563Z,34.33
2023-02-14T06:27:55.689Z,33.23
2023-02-14T06:30:22.304Z,32.60
2023-02-14T06:32:48.871Z,31.43
2023-02-14T06:35:15.512Z,37.87
2023-02-14T06:37:42.441Z,34.97
2023-02-14T06:40:09.679Z,33.23
2023-02-14T06:42:36.196Z,34.47
2023-02-14T06:45:02.882Z,34.57
2023-02-14T06:47:29.410Z,36.47
2023-02-14T06:49:56.021Z,34.97
2023-02-14T06:52:22.547Z,43.97
2023-02-14T06:54:49.052Z,39.00
2023-02-14T06:57:15.623Z,33.20
2023-02-14T06:59:42.458Z,36.73
2023-02-14T07:02:10.489Z,32.83
2023-02-14T07:04:37.102Z,34.63
2023-02-14T07:07:04.350Z,34.23
2023-02-14T07:09:30.841Z,32.70
2023-02-14T07:11:57.388Z,35.87
2023-02-14T07:14:23.882Z,31.57
2023-02-14T07:16:50.403Z,33.50
2023-02-14T07:19:16.986Z,31.63
2023-02-14T07:21:43.496Z,34.47
2023-02-14T07:24:10.082Z,33.73
2023-02-14T07:26:36.632Z,32.70
2023-02-14T07:29:03.254Z,42.23
2023-02-14T07:31:29.873Z,46.47
2023-02-14T07:33:58.574Z,46.43
2023-02-14T07:36:25.066Z,48.83
2023-02-14T07:38:51.546Z,45.80
2023-02-14T07:41:18.043Z,37.17
2023-02-14T07:43:44.527Z,35.30
2023-02-14T07:46:11.150Z,35.23
2023-02-14T07:48:39.332Z,35.57
2023-02-14T07:51:05.856Z,33.47
2023-02-14T07:53:32.363Z,32.33
2023-02-14T07:55:58.872Z,34.37
2023-02-14T07:58:25.529Z,34.27
2023-02-14T08:00:52.470Z,39.23
2023-02-14T08:03:19.119Z,39.17
2023-02-14T08:05:45.646Z,39.17
2023-02-14T08:08:12.186Z,35.73
2023-02-14T08:10:38.682Z,37.23
2023-02-14T08:13:05.201Z,32.83
2023-02-14T08:15:50.953Z,32.63
2023-02-14T08:18:18.416Z,38.20
2023-02-14T08:20:45.359Z,31.97
2023-02-14T08:23:12.025Z,41.33
2023-02-14T08:25:39.283Z,34.03
2023-02-14T08:28:06.017Z,35.40
2023-02-14T08:30:32.761Z,33.23
2023-02-14T08:32:59.380Z,30.80
2023-02-14T08:35:26.252Z,32.37
2023-02-14T08:37:52.798Z,30.97
2023-02-14T08:40:20.496Z,33.93
2023-02-14T08:42:47.108Z,33.33
2023-02-14T08:45:13.608Z,29.23
2023-02-14T08:47:40.481Z,30.43
2023-02-14T08:50:07.986Z,30.60
2023-02-14T08:52:34.495Z,27.60
2023-02-14T08:55:02.199Z,25.63
2023-02-14T08:57:29.503Z,30.63
2023-02-14T08:59:55.998Z,25.80
2023-02-14T09:02:22.549Z,31.83
2023-02-14T09:04:49.122Z,26.70
2023-02-14T09:07:15.649Z,26.00
2023-02-14T09:09:42.157Z,24.53
2023-02-14T09:12:09.082Z,21.37
2023-02-14T09:14:36.476Z,20.00
2023-02-14T09:17:05.584Z,20.07
2023-02-14T09:19:32.843Z,21.17
2023-02-14T09:21:59.557Z,20.43
2023-02-14T09:24:27.789Z,34.23
2023-02-14T09:26:54.525Z,49.37
2023-02-14T09:29:21.238Z,49.73
2023-02-14T09:31:47.950Z,44.67
2023-02-14T09:34:33.286Z,33.10
2023-02-14T09:37:18.728Z,21.03
2023-02-14T09:39:45.741Z,27.03
2023-02-14T09:42:18.289Z,29.37
2023-02-14T09:44:52.422Z,23.77
2023-02-14T09:47:25.089Z,23.53
2023-02-14T09:49:51.661Z,18.03
2023-02-14T09:52:18.687Z,18.90
2023-02-14T09:54:47.235Z,19.77
2023-02-14T09:57:13.743Z,14.10
2023-02-14T09:59:40.212Z,16.23
2023-02-14T10:02:22.948Z,23.87
2023-02-14T10:04:55.616Z,22.50
2023-02-14T10:07:27.327Z,29.70
2023-02-14T10:10:06.148Z,30.90
2023-02-14T10:12:38.209Z,35.40
2023-02-14T10:15:10.806Z,30.67
2023-02-14T10:17:41.058Z,24.80
2023-02-14T10:20:15.324Z,23.10
2023-02-14T10:22:42.420Z,24.47
2023-02-14T10:25:29.193Z,23.87
2023-02-14T10:27:55.928Z,25.60
2023-02-14T10:30:23.024Z,27.97
2023-02-14T10:33:08.641Z,25.93
2023-02-14T10:35:43.483Z,26.93
2023-02-14T10:38:17.641Z,25.10
2023-02-14T10:40:47.307Z,22.10
2023-02-14T10:43:15.583Z,22.03
2023-02-14T10:45:45.580Z,22.30
2023-02-14T10:48:18.286Z,22.67
2023-02-14T10:50:50.836Z,20.37
2023-02-14T10:53:23.350Z,20.53
2023-02-14T10:55:50.026Z,18.63
2023-02-14T10:58:17.738Z,20.27
2023-02-14T11:00:49.557Z,19.70
2023-02-14T11:03:16.161Z,16.23
2023-02-14T11:05:46.204Z,19.10
2023-02-14T11:08:16.105Z,17.33
2023-02-14T11:10:42.687Z,19.07
2023-02-14T11:13:28.141Z,16.07
2023-02-14T11:15:54.718Z,16.80
2023-02-14T11:18:22.441Z,15.17
2023-02-14T11:20:59.172Z,12.10
2023-02-14T11:23:25.818Z,13.67
2023-02-14T11:25:53.730Z,14.83
2023-02-14T11:28:20.320Z,12.73
2023-02-14T11:30:47.688Z,15.53
2023-02-14T11:33:25.734Z,17.20
2023-02-14T11:35:52.258Z,13.73
2023-02-14T11:38:27.266Z,16.10
2023-02-14T11:40:57.108Z,9.57
2023-02-14T11:43:30.060Z,12.83
2023-02-14T11:46:05.722Z,10.40
2023-02-14T11:48:38.996Z,11.50
2023-02-14T11:51:14.058Z,13.40
2023-02-14T11:53:54.953Z,14.40
2023-02-14T11:56:22.217Z,11.47
2023-02-14T11:59:07.079Z,15.27
2023-02-14T12:01:34.636Z,16.37
2023-02-14T12:04:02.024Z,16.27
2023-02-14T12:06:30.333Z,14.87
2023-02-14T12:09:15.588Z,17.00
2023-02-14T12:11:42.183Z,13.93
2023-02-14T12:14:09.547Z,13.97
2023-02-14T12:16:40.368Z,17.90
2023-02-14T12:19:50.890Z,14.53
2023-02-14T12:22:22.000Z,14.73
2023-02-14T12:25:03.584Z,9.13
2023-02-14T12:27:31.131Z,9.33
2023-02-14T12:30:03.116Z,10.70
2023-02-14T12:32:30.558Z,17.67
2023-02-14T12:35:12.335Z,18.53
2023-02-14T12:37:41.126Z,18.57
2023-02-14T12:40:20.355Z,11.03
2023-02-14T12:42:49.929Z,16.73
2023-02-14T12:45:22.640Z,14.23
2023-02-14T12:47:55.303Z,17.07
2023-02-14T12:50:21.821Z,15.20
2023-02-14T12:52:56.700Z,14.07
2023-02-14T12:55:41.595Z,12.97
2023-02-14T12:58:11.130Z,17.27
2023-02-14T13:00:56.440Z,17.13
2023-02-14T13:03:49.671Z,12.20
2023-02-14T13:06:32.133Z,14.30
2023-02-14T13:09:01.518Z,13.97
2023-02-14T13:11:31.223Z,11.80
2023-02-14T13:14:04.671Z,15.97
2023-02-14T13:16:36.152Z,15.10
2023-02-14T13:19:22.981Z,13.43
2023-02-14T13:21:49.520Z,18.80
2023-02-14T13:24:26.180Z,15.27
2023-02-14T13:26:55.415Z,15.93
2023-02-14T13:29:23.789Z,15.20
2023-02-14T13:31:51.176Z,19.17
2023-02-14T13:34:26.866Z,15.50
2023-02-14T13:36:53.709Z,13.90
2023-02-14T13:39:25.790Z,15.23
2023-02-14T13:41:52.299Z,11.27
2023-02-14T13:44:45.406Z,13.30
2023-02-14T13:47:32.213Z,14.40
2023-02-14T13:49:59.950Z,11.53
2023-02-14T13:52:45.620Z,14.30
2023-02-14T13:55:19.368Z,10.40
2023-02-14T13:57:46.850Z,12.23
2023-02-14T14:00:16.530Z,12.67
2023-02-14T14:02:52.922Z,12.10
2023-02-14T14:05:40.639Z,11.90
2023-02-14T14:08:22.601Z,18.37
2023-02-14T14:10:53.216Z,13.83
2023-02-14T14:13:55.550Z,13.53
2023-02-14T14:16:27.955Z,13.67
2023-02-14T14:18:54.731Z,13.97
2023-02-14T14:21:24.045Z,12.97
2023-02-14T14:24:04.223Z,14.43
2023-02-14T14:26:35.614Z,15.53
2023-02-14T14:29:02.391Z,14.50
2023-02-14T14:31:29.278Z,14.87
2023-02-14T14:33:59.674Z,14.93
2023-02-14T14:36:26.285Z,14.93
2023-02-14T14:38:54.272Z,14.37
2023-02-14T14:41:26.163Z,12.83
2023-02-14T14:43:52.850Z,12.27
2023-02-14T14:46:19.414Z,13.90
2023-02-14T14:48:46.952Z,16.47
2023-02-14T14:51:33.440Z,17.53
2023-02-14T14:54:04.205Z,17.33
2023-02-14T14:56:37.794Z,14.07
2023-02-14T14:59:26.009Z,13.23
2023-02-14T15:01:54.519Z,10.93
2023-02-14T15:04:24.214Z,10.60
2023-02-14T15:06:51.238Z,15.13
2023-02-14T15:09:23.768Z,12.03
2023-02-14T15:12:09.429Z,12.77
2023-02-14T15:14:36.454Z,14.97
2023-02-14T15:17:22.027Z,12.67
2023-02-14T15:19:54.141Z,14.27
2023-02-14T15:22:22.288Z,16.20
2023-02-14T15:24:49.051Z,14.17
2023-02-14T15:27:16.155Z,16.27
2023-02-14T15:29:42.737Z,15.90
2023-02-14T15:32:09.461Z,14.03
2023-02-14T15:34:38.990Z,15.37
2023-02-14T15:37:06.870Z,20.63
2023-02-14T15:39:35.951Z,18.43
2023-02-14T15:42:02.484Z,18.80
2023-02-14T15:44:29.013Z,19.90
2023-02-14T15:46:56.261Z,20.50
2023-02-14T15:49:23.167Z,20.97
2023-02-14T15:51:49.748Z,35.53
2023-02-14T15:54:28.368Z,31.90
2023-02-14T15:56:56.755Z,42.03
2023-02-14T15:59:24.153Z,35.37
2023-02-14T16:01:52.675Z,34.63
2023-02-14T16:04:24.345Z,35.90
2023-02-14T16:07:03.069Z,42.97
2023-02-14T16:09:30.117Z,38.73
2023-02-14T16:11:56.611Z,26.40
2023-02-14T16:14:36.078Z,42.20
2023-02-14T16:17:03.754Z,32.17
2023-02-14T16:19:50.569Z,33.63
2023-02-14T16:22:32.065Z,29.37
2023-02-14T16:24:59.113Z,27.90
2023-02-14T16:27:25.608Z,34.20
2023-02-14T16:29:52.289Z,36.17
2023-02-14T16:32:20.361Z,31.57
2023-02-14T16:34:47.596Z,25.57
2023-02-14T16:37:19.108Z,32.13
2023-02-14T16:39:45.651Z,33.00
2023-02-14T16:42:15.999Z,27.93
2023-02-14T16:44:42.624Z,29.43
2023-02-14T16:47:13.018Z,33.63
2023-02-14T16:49:39.838Z,31.90
2023-02-14T16:52:06.695Z,40.87
2023-02-14T16:54:33.444Z,40.87
2023-02-14T16:57:00.441Z,41.17
2023-02-14T16:59:27.196Z,34.17
2023-02-14T17:01:53.966Z,34.83
2023-02-14T17:04:21.248Z,35.03
2023-02-14T17:06:49.382Z,34.43
2023-02-14T17:09:16.561Z,33.23
2023-02-14T17:11:43.627Z,34.23
2023-02-14T17:14:11.063Z,28.07
2023-02-14T17:16:37.550Z,28.70
2023-02-14T17:19:04.113Z,32.57
2023-02-14T17:21:31.025Z,40.07
2023-02-14T17:23:57.578Z,35.60
2023-02-14T17:26:24.277Z,39.47
2023-02-14T17:28:50.788Z,28.03
2023-02-14T17:31:18.270Z,27.87
2023-02-14T17:33:44.971Z,26.90
2023-02-14T17:36:12.515Z,30.07
2023-02-14T17:38:39.681Z,27.67
2023-02-14T17:41:16.678Z,29.17
2023-02-14T17:43:43.280Z,33.40
2023-02-14T17:46:09.913Z,50.70
2023-02-14T17:48:36.444Z,44.03
2023-02-14T17:51:04.257Z,44.00
2023-02-14T17:53:30.747Z,44.07
2023-02-14T17:55:58.187Z,48.83
2023-02-14T17:58:24.739Z,47.03
2023-02-14T18:00:51.330Z,41.23
2023-02-14T18:03:17.831Z,48.10
2023-02-14T18:05:44.318Z,35.97
2023-02-14T18:08:10.783Z,33.53
2023-02-14T18:10:37.731Z,32.67
2023-02-14T18:13:04.221Z,33.37
2023-02-14T18:15:31.261Z,35.20
2023-02-14T18:17:58.092Z,39.90
2023-02-14T18:20:24.701Z,57.70
2023-02-14T18:22:51.315Z,50.20
2023-02-14T18:25:18.009Z,47.83
2023-02-14T18:27:44.533Z,36.43
2023-02-14T18:30:11.341Z,34.73
2023-02-14T18:32:37.906Z,40.17
2023-02-14T18:35:04.448Z,38.87
2023-02-14T18:37:30.988Z,43.80
2023-02-14T18:39:57.501Z,33.53
2023-02-14T18:42:24.342Z,32.67
2023-02-14T18:44:50.908Z,15.93
2023-02-14T18:47:17.407Z,11.73
2023-02-14T18:49:44.120Z,13.63
2023-02-14T18:52:10.699Z,17.73
2023-02-14T18:54:37.315Z,16.17
2023-02-14T18:57:03.976Z,12.03
2023-02-14T18:59:30.709Z,16.53
2023-02-14T19:01:57.270Z,19.03
2023-02-14T19:04:23.854Z,21.80
2023-02-14T19:06:50.420Z,25.07
2023-02-14T19:09:17.629Z,24.60
2023-02-14T19:11:44.218Z,28.37
2023-02-14T19:14:11.018Z,27.53
2023-02-14T19:16:38.635Z,34.80
2023-02-14T19:19:06.275Z,31.63
2023-02-14T19:21:36.861Z,30.77
2023-02-14T19:24:06.906Z,21.57
2023-02-14T19:26:35.097Z,20.47
2023-02-14T19:29:05.449Z,22.30
2023-02-14T19:31:36.326Z,19.53
2023-02-14T19:34:03.524Z,20.67
2023-02-14T19:36:30.159Z,29.47
2023-02-14T19:38:57.274Z,28.37
2023-02-14T19:41:24.622Z,29.93
2023-02-14T19:43:51.440Z,23.80
2023-02-14T19:46:21.210Z,33.47
2023-02-14T19:48:48.524Z,30.27
2023-02-14T19:51:16.036Z,32.67
2023-02-14T19:53:42.948Z,34.57
2023-02-14T19:56:09.998Z,31.73
2023-02-14T19:58:37.135Z,31.40
2023-02-14T20:01:05.884Z,37.60
2023-02-14T20:03:33.185Z,32.07
2023-02-14T20:05:59.972Z,32.27
2023-02-14T20:08:27.347Z,27.00
2023-02-14T20:10:54.341Z,25.77
2023-02-14T20:13:20.885Z,23.57
2023-02-14T20:15:47.944Z,23.63
2023-02-14T20:18:14.899Z,21.10
2023-02-14T20:21:04.121Z,19.73
2023-02-14T20:23:31.609Z,23.60
2023-02-14T20:25:58.210Z,29.70
2023-02-14T20:28:24.784Z,45.17
2023-02-14T20:30:51.970Z,39.10
2023-02-14T20:33:18.628Z,40.07
2023-02-14T20:35:45.267Z,35.33
2023-02-14T20:38:12.288Z,27.37
2023-02-14T20:40:39.344Z,25.97
2023-02-14T20:43:05.910Z,34.90
2023-02-14T20:45:33.108Z,35.37
2023-02-14T20:48:03.461Z,35.37
2023-02-14T20:50:30.735Z,36.90
2023-02-14T20:52:57.538Z,38.97
2023-02-14T20:55:24.116Z,39.73
2023-02-14T20:57:50.587Z,37.40
2023-02-14T21:00:17.551Z,44.97
2023-02-14T21:02:44.086Z,35.67
2023-02-14T21:05:10.667Z,33.13
2023-02-14T21:07:38.138Z,37.73
2023-02-14T21:10:04.984Z,33.17
2023-02-14T21:12:31.483Z,31.87
2023-02-14T21:14:58.536Z,28.00
2023-02-14T21:17:25.113Z,23.93
2023-02-14T21:19:51.640Z,25.50
2023-02-14T21:22:18.214Z,27.57
2023-02-14T21:24:44.784Z,24.43
2023-02-14T21:27:11.901Z,26.07
2023-02-14T21:29:38.733Z,29.43
2023-02-14T21:32:05.518Z,24.73
2023-02-14T21:34:32.852Z,19.83
2023-02-14T21:37:02.588Z,18.90
2023-02-14T21:39:31.077Z,20.37
2023-02-14T21:41:57.882Z,21.93
2023-02-14T21:44:43.126Z,21.67
2023-02-14T21:47:09.754Z,20.93
2023-02-14T21:49:54.962Z,28.13
2023-02-14T21:52:21.558Z,28.20
2023-02-14T21:54:48.275Z,15.83
2023-02-14T21:57:14.814Z,18.03
2023-02-14T21:59:41.858Z,18.83
2023-02-14T22:02:08.389Z,18.17
2023-02-14T22:04:35.680Z,20.80
2023-02-14T22:07:02.220Z,18.67
2023-02-14T22:09:28.782Z,18.43
2023-02-14T22:11:55.864Z,18.50
2023-02-14T22:14:22.418Z,19.80
2023-02-14T22:16:48.962Z,15.03
2023-02-14T22:19:15.792Z,20.77
2023-02-14T22:21:42.528Z,15.57
2023-02-14T22:24:09.117Z,20.27
2023-02-14T22:26:38.921Z,21.43
2023-02-14T22:29:05.668Z,19.40
2023-02-14T22:31:33.534Z,19.97
2023-02-14T22:34:01.331Z,23.97
2023-02-14T22:36:27.883Z,30.10
2023-02-14T22:38:54.372Z,27.47
2023-02-14T22:41:21.777Z,38.10
2023-02-14T22:43:48.337Z,32.03
2023-02-14T22:46:15.624Z,31.83
2023-02-14T22:48:42.466Z,39.80
2023-02-14T22:51:09.055Z,25.60
2023-02-14T22:53:35.784Z,21.60
2023-02-14T22:56:09.414Z,15.97
2023-02-14T22:58:35.928Z,21.60
2023-02-14T23:01:02.594Z,29.17
2023-02-14T23:03:29.334Z,41.27
2023-02-14T23:05:56.435Z,39.63
2023-02-14T23:08:23.057Z,39.70
2023-02-14T23:10:49.580Z,50.67
2023-02-14T23:13:34.823Z,58.10
2023-02-14T23:16:19.870Z,61.43
2023-02-14T23:19:05.381Z,41.70
2023-02-14T23:21:50.516Z,44.53
2023-02-14T23:24:17.044Z,42.37
2023-02-14T23:26:43.608Z,40.83
2023-02-14T23:29:10.294Z,26.47
2023-02-14T23:31:36.966Z,30.10
2023-02-14T23:34:03.670Z,26.20
2023-02-14T23:36:31.025Z,31.03
2023-02-14T23:38:57.652Z,34.87
2023-02-14T23:41:42.931Z,32.20
2023-02-14T23:44:09.499Z,31.87
2023-02-14T23:46:36.036Z,33.87
2023-02-14T23:49:02.749Z,29.23
2023-02-14T23:51:29.347Z,31.17
2023-02-14T23:53:55.946Z,34.13
2023-02-14T23:56:22.457Z,26.17
2023-02-14T23:58:48.999Z,28.10
